sensor_id;sensor_type;location;lat;lon;timestamp;temperature;humidity
64937;SHT30;51452;47.698;19.050;2023-07-16T00:01:56;25.40;58.83
64937;SHT30;51452;47.698;19.050;2023-07-16T00:04:22;25.37;59.48
64937;SHT30;51452;47.698;19.050;2023-07-16T00:06:47;25.29;60.02
64937;SHT30;51452;47.698;19.050;2023-07-16T00:09:12;25.22;60.84
64937;SHT30;51452;47.698;19.050;2023-07-16T00:11:38;25.15;61.42
64937;SHT30;51452;47.698;19.050;2023-07-16T00:14:03;25.02;61.54
64937;SHT30;51452;47.698;19.050;2023-07-16T00:16:28;24.88;61.96
64937;SHT30;51452;47.698;19.050;2023-07-16T00:18:54;24.82;61.97
64937;SHT30;51452;47.698;19.050;2023-07-16T00:21:19;24.78;61.85
64937;SHT30;51452;47.698;19.050;2023-07-16T00:23:45;24.67;62.71
64937;SHT30;51452;47.698;19.050;2023-07-16T00:26:12;24.64;62.66
64937;SHT30;51452;47.698;19.050;2023-07-16T00:28:37;24.60;62.41
64937;SHT30;51452;47.698;19.050;2023-07-16T00:31:03;24.53;63.24
64937;SHT30;51452;47.698;19.050;2023-07-16T00:33:28;24.50;63.19
64937;SHT30;51452;47.698;19.050;2023-07-16T00:35:54;24.44;63.26
64937;SHT30;51452;47.698;19.050;2023-07-16T00:38:19;24.47;63.34
64937;SHT30;51452;47.698;19.050;2023-07-16T00:40:48;24.44;63.49
64937;SHT30;51452;47.698;19.050;2023-07-16T00:43:14;24.44;63.34
64937;SHT30;51452;47.698;19.050;2023-07-16T00:45:40;24.40;63.61
64937;SHT30;51452;47.698;19.050;2023-07-16T00:48:06;24.33;63.93
64937;SHT30;51452;47.698;19.050;2023-07-16T00:50:34;24.26;63.74
64937;SHT30;51452;47.698;19.050;2023-07-16T00:53:01;24.17;64.15
64937;SHT30;51452;47.698;19.050;2023-07-16T00:55:28;24.13;64.70
64937;SHT30;51452;47.698;19.050;2023-07-16T00:57:53;24.09;64.54
64937;SHT30;51452;47.698;19.050;2023-07-16T01:00:21;24.06;63.87
64937;SHT30;51452;47.698;19.050;2023-07-16T01:02:46;24.12;64.30
64937;SHT30;51452;47.698;19.050;2023-07-16T01:05:12;24.07;64.22
64937;SHT30;51452;47.698;19.050;2023-07-16T01:07:42;24.07;64.20
64937;SHT30;51452;47.698;19.050;2023-07-16T01:10:09;24.03;64.28
64937;SHT30;51452;47.698;19.050;2023-07-16T01:12:36;24.05;63.96
64937;SHT30;51452;47.698;19.050;2023-07-16T01:15:01;24.00;64.19
64937;SHT30;51452;47.698;19.050;2023-07-16T01:17:27;24.02;64.42
64937;SHT30;51452;47.698;19.050;2023-07-16T01:19:52;23.95;64.52
64937;SHT30;51452;47.698;19.050;2023-07-16T01:30:21;23.70;64.93
64937;SHT30;51452;47.698;19.050;2023-07-16T01:32:48;23.72;65.02
64937;SHT30;51452;47.698;19.050;2023-07-16T01:35:14;23.63;65.14
64937;SHT30;51452;47.698;19.050;2023-07-16T01:37:41;23.63;65.42
64937;SHT30;51452;47.698;19.050;2023-07-16T01:40:07;23.56;65.67
64937;SHT30;51452;47.698;19.050;2023-07-16T01:42:34;23.48;65.71
64937;SHT30;51452;47.698;19.050;2023-07-16T01:44:59;23.46;65.81
64937;SHT30;51452;47.698;19.050;2023-07-16T01:49:53;23.41;65.86
64937;SHT30;51452;47.698;19.050;2023-07-16T01:52:19;23.44;65.98
64937;SHT30;51452;47.698;19.050;2023-07-16T01:54:44;23.39;66.09
64937;SHT30;51452;47.698;19.050;2023-07-16T01:57:09;23.42;66.10
64937;SHT30;51452;47.698;19.050;2023-07-16T01:59:35;23.41;66.38
64937;SHT30;51452;47.698;19.050;2023-07-16T02:02:00;23.44;65.83
64937;SHT30;51452;47.698;19.050;2023-07-16T02:04:25;23.37;66.13
64937;SHT30;51452;47.698;19.050;2023-07-16T02:06:51;23.27;66.36
64937;SHT30;51452;47.698;19.050;2023-07-16T02:09:16;23.27;66.48
64937;SHT30;51452;47.698;19.050;2023-07-16T02:11:42;23.25;66.64
64937;SHT30;51452;47.698;19.050;2023-07-16T02:14:07;23.17;66.63
64937;SHT30;51452;47.698;19.050;2023-07-16T02:16:32;23.18;66.58
64937;SHT30;51452;47.698;19.050;2023-07-16T02:18:58;23.19;66.99
64937;SHT30;51452;47.698;19.050;2023-07-16T02:21:23;23.18;67.09
64937;SHT30;51452;47.698;19.050;2023-07-16T02:23:48;23.18;67.11
64937;SHT30;51452;47.698;19.050;2023-07-16T02:26:14;23.17;67.07
64937;SHT30;51452;47.698;19.050;2023-07-16T02:28:39;23.12;67.04
64937;SHT30;51452;47.698;19.050;2023-07-16T02:31:05;23.04;67.34
64937;SHT30;51452;47.698;19.050;2023-07-16T02:33:30;23.01;67.38
64937;SHT30;51452;47.698;19.050;2023-07-16T02:35:56;22.98;67.60
64937;SHT30;51452;47.698;19.050;2023-07-16T02:38:21;22.97;67.80
64937;SHT30;51452;47.698;19.050;2023-07-16T02:40:47;22.97;67.92
64937;SHT30;51452;47.698;19.050;2023-07-16T02:43:13;22.86;67.97
64937;SHT30;51452;47.698;19.050;2023-07-16T02:45:38;22.84;68.13
64937;SHT30;51452;47.698;19.050;2023-07-16T02:48:04;22.86;68.39
64937;SHT30;51452;47.698;19.050;2023-07-16T02:50:30;22.81;68.91
64937;SHT30;51452;47.698;19.050;2023-07-16T02:52:55;22.81;68.75
64937;SHT30;51452;47.698;19.050;2023-07-16T02:55:21;22.81;68.58
64937;SHT30;51452;47.698;19.050;2023-07-16T02:57:46;22.83;68.33
64937;SHT30;51452;47.698;19.050;2023-07-16T03:00:12;22.74;68.54
64937;SHT30;51452;47.698;19.050;2023-07-16T03:02:37;22.77;68.62
64937;SHT30;51452;47.698;19.050;2023-07-16T03:05:03;22.71;69.02
64937;SHT30;51452;47.698;19.050;2023-07-16T03:07:28;22.73;68.89
64937;SHT30;51452;47.698;19.050;2023-07-16T03:09:54;22.70;68.74
64937;SHT30;51452;47.698;19.050;2023-07-16T03:12:19;22.63;68.43
64937;SHT30;51452;47.698;19.050;2023-07-16T03:14:44;22.59;69.22
64937;SHT30;51452;47.698;19.050;2023-07-16T03:17:10;22.61;69.21
64937;SHT30;51452;47.698;19.050;2023-07-16T03:19:35;22.63;69.60
64937;SHT30;51452;47.698;19.050;2023-07-16T03:22:00;22.59;69.79
64937;SHT30;51452;47.698;19.050;2023-07-16T03:24:26;22.57;69.61
64937;SHT30;51452;47.698;19.050;2023-07-16T03:26:51;22.52;70.22
64937;SHT30;51452;47.698;19.050;2023-07-16T03:29:16;22.49;70.18
64937;SHT30;51452;47.698;19.050;2023-07-16T03:31:42;22.42;70.59
64937;SHT30;51452;47.698;19.050;2023-07-16T03:34:07;22.49;70.64
64937;SHT30;51452;47.698;19.050;2023-07-16T03:36:33;22.45;70.33
64937;SHT30;51452;47.698;19.050;2023-07-16T03:38:58;22.47;70.29
64937;SHT30;51452;47.698;19.050;2023-07-16T03:41:23;22.50;70.05
64937;SHT30;51452;47.698;19.050;2023-07-16T03:43:49;22.53;70.38
64937;SHT30;51452;47.698;19.050;2023-07-16T03:46:14;22.52;70.66
64937;SHT30;51452;47.698;19.050;2023-07-16T03:48:39;22.56;70.52
64937;SHT30;51452;47.698;19.050;2023-07-16T03:51:05;22.56;70.44
64937;SHT30;51452;47.698;19.050;2023-07-16T03:53:30;22.56;70.44
64937;SHT30;51452;47.698;19.050;2023-07-16T03:55:55;22.59;70.63
64937;SHT30;51452;47.698;19.050;2023-07-16T03:58:21;22.59;70.92
64937;SHT30;51452;47.698;19.050;2023-07-16T04:00:48;22.43;71.19
64937;SHT30;51452;47.698;19.050;2023-07-16T04:03:13;22.55;71.45
64937;SHT30;51452;47.698;19.050;2023-07-16T04:05:38;22.60;71.46
64937;SHT30;51452;47.698;19.050;2023-07-16T04:08:04;22.61;71.29
64937;SHT30;51452;47.698;19.050;2023-07-16T04:10:29;22.64;71.40
64937;SHT30;51452;47.698;19.050;2023-07-16T04:12:54;22.71;71.66
64937;SHT30;51452;47.698;19.050;2023-07-16T04:15:20;22.80;71.40
64937;SHT30;51452;47.698;19.050;2023-07-16T04:17:45;22.81;71.16
64937;SHT30;51452;47.698;19.050;2023-07-16T04:20:11;22.80;70.05
64937;SHT30;51452;47.698;19.050;2023-07-16T04:22:36;22.81;71.40
64937;SHT30;51452;47.698;19.050;2023-07-16T04:25:02;22.93;71.67
64937;SHT30;51452;47.698;19.050;2023-07-16T04:27:27;23.00;72.30
64937;SHT30;51452;47.698;19.050;2023-07-16T04:29:52;22.98;70.90
64937;SHT30;51452;47.698;19.050;2023-07-16T04:32:18;23.15;72.50
64937;SHT30;51452;47.698;19.050;2023-07-16T04:34:43;23.19;72.09
64937;SHT30;51452;47.698;19.050;2023-07-16T04:37:09;23.24;72.09
64937;SHT30;51452;47.698;19.050;2023-07-16T04:39:34;23.32;70.60
64937;SHT30;51452;47.698;19.050;2023-07-16T04:41:59;23.41;69.94
64937;SHT30;51452;47.698;19.050;2023-07-16T04:44:25;23.42;68.80
64937;SHT30;51452;47.698;19.050;2023-07-16T04:46:50;23.45;69.62
64937;SHT30;51452;47.698;19.050;2023-07-16T04:49:15;23.49;70.32
64937;SHT30;51452;47.698;19.050;2023-07-16T04:51:41;23.56;68.84
64937;SHT30;51452;47.698;19.050;2023-07-16T04:54:06;23.65;69.18
64937;SHT30;51452;47.698;19.050;2023-07-16T04:56:32;23.72;68.21
64937;SHT30;51452;47.698;19.050;2023-07-16T04:58:57;23.82;69.87
64937;SHT30;51452;47.698;19.050;2023-07-16T05:01:22;23.89;70.23
64937;SHT30;51452;47.698;19.050;2023-07-16T05:03:48;23.93;68.80
64937;SHT30;51452;47.698;19.050;2023-07-16T05:06:13;23.99;68.55
64937;SHT30;51452;47.698;19.050;2023-07-16T05:08:39;24.03;69.11
64937;SHT30;51452;47.698;19.050;2023-07-16T05:11:04;24.06;67.10
64937;SHT30;51452;47.698;19.050;2023-07-16T05:13:29;24.05;66.99
64937;SHT30;51452;47.698;19.050;2023-07-16T05:15:55;24.14;68.09
64937;SHT30;51452;47.698;19.050;2023-07-16T05:18:20;24.20;66.44
64937;SHT30;51452;47.698;19.050;2023-07-16T05:20:47;24.16;66.85
64937;SHT30;51452;47.698;19.050;2023-07-16T05:23:13;24.31;66.50
64937;SHT30;51452;47.698;19.050;2023-07-16T05:25:39;24.38;68.78
64937;SHT30;51452;47.698;19.050;2023-07-16T05:28:04;24.45;68.78
64937;SHT30;51452;47.698;19.050;2023-07-16T05:30:29;24.53;66.88
64937;SHT30;51452;47.698;19.050;2023-07-16T05:32:55;24.50;66.54
64937;SHT30;51452;47.698;19.050;2023-07-16T05:35:20;24.57;65.10
64937;SHT30;51452;47.698;19.050;2023-07-16T05:37:45;24.67;65.87
64937;SHT30;51452;47.698;19.050;2023-07-16T05:40:11;24.74;67.03
64937;SHT30;51452;47.698;19.050;2023-07-16T05:42:36;24.81;66.50
64937;SHT30;51452;47.698;19.050;2023-07-16T05:45:02;24.79;65.78
64937;SHT30;51452;47.698;19.050;2023-07-16T05:47:28;24.86;65.22
64937;SHT30;51452;47.698;19.050;2023-07-16T05:49:53;24.98;65.41
64937;SHT30;51452;47.698;19.050;2023-07-16T05:52:19;25.08;66.58
64937;SHT30;51452;47.698;19.050;2023-07-16T05:54:44;25.15;65.35
64937;SHT30;51452;47.698;19.050;2023-07-16T05:57:12;25.22;63.54
64937;SHT30;51452;47.698;19.050;2023-07-16T05:59:38;25.23;63.80
64937;SHT30;51452;47.698;19.050;2023-07-16T06:02:04;25.25;64.84
64937;SHT30;51452;47.698;19.050;2023-07-16T06:04:30;25.36;64.66
64937;SHT30;51452;47.698;19.050;2023-07-16T06:06:56;25.39;64.63
64937;SHT30;51452;47.698;19.050;2023-07-16T06:09:21;25.53;64.91
64937;SHT30;51452;47.698;19.050;2023-07-16T06:11:47;25.60;63.03
64937;SHT30;51452;47.698;19.050;2023-07-16T06:14:13;25.63;62.50
64937;SHT30;51452;47.698;19.050;2023-07-16T06:16:38;25.77;62.73
64937;SHT30;51452;47.698;19.050;2023-07-16T06:19:03;25.81;61.93
64937;SHT30;51452;47.698;19.050;2023-07-16T06:21:29;25.90;62.46
64937;SHT30;51452;47.698;19.050;2023-07-16T06:23:54;25.78;57.50
64937;SHT30;51452;47.698;19.050;2023-07-16T06:26:20;26.02;59.04
64937;SHT30;51452;47.698;19.050;2023-07-16T06:28:45;26.11;59.05
64937;SHT30;51452;47.698;19.050;2023-07-16T06:31:14;26.24;59.00
64937;SHT30;51452;47.698;19.050;2023-07-16T06:33:39;26.29;57.23
64937;SHT30;51452;47.698;19.050;2023-07-16T06:36:05;26.34;57.16
64937;SHT30;51452;47.698;19.050;2023-07-16T06:38:30;26.38;57.68
64937;SHT30;51452;47.698;19.050;2023-07-16T06:40:56;26.53;57.68
64937;SHT30;51452;47.698;19.050;2023-07-16T06:43:21;26.57;56.77
64937;SHT30;51452;47.698;19.050;2023-07-16T06:45:49;26.59;55.48
64937;SHT30;51452;47.698;19.050;2023-07-16T06:48:15;26.65;55.79
64937;SHT30;51452;47.698;19.050;2023-07-16T06:50:40;26.71;54.43
64937;SHT30;51452;47.698;19.050;2023-07-16T06:53:06;26.85;55.90
64937;SHT30;51452;47.698;19.050;2023-07-16T06:55:31;26.89;55.26
64937;SHT30;51452;47.698;19.050;2023-07-16T06:57:56;26.93;54.49
64937;SHT30;51452;47.698;19.050;2023-07-16T07:00:22;27.00;55.48
64937;SHT30;51452;47.698;19.050;2023-07-16T07:02:47;27.04;56.03
64937;SHT30;51452;47.698;19.050;2023-07-16T07:05:13;27.08;56.06
64937;SHT30;51452;47.698;19.050;2023-07-16T07:07:38;27.18;53.73
64937;SHT30;51452;47.698;19.050;2023-07-16T07:10:03;27.20;54.37
64937;SHT30;51452;47.698;19.050;2023-07-16T07:12:29;27.27;54.89
64937;SHT30;51452;47.698;19.050;2023-07-16T07:14:55;27.33;53.88
64937;SHT30;51452;47.698;19.050;2023-07-16T07:17:20;27.37;54.57
64937;SHT30;51452;47.698;19.050;2023-07-16T07:19:45;27.31;53.53
64937;SHT30;51452;47.698;19.050;2023-07-16T07:22:11;27.41;54.62
64937;SHT30;51452;47.698;19.050;2023-07-16T07:24:36;27.41;54.53
64937;SHT30;51452;47.698;19.050;2023-07-16T07:27:02;27.54;53.50
64937;SHT30;51452;47.698;19.050;2023-07-16T07:29:27;27.48;53.81
64937;SHT30;51452;47.698;19.050;2023-07-16T07:31:53;27.58;53.73
64937;SHT30;51452;47.698;19.050;2023-07-16T07:34:19;27.65;52.34
64937;SHT30;51452;47.698;19.050;2023-07-16T07:36:44;27.68;53.34
64937;SHT30;51452;47.698;19.050;2023-07-16T07:39:10;27.80;55.17
64937;SHT30;51452;47.698;19.050;2023-07-16T07:41:35;27.85;53.06
64937;SHT30;51452;47.698;19.050;2023-07-16T07:44:01;27.91;52.35
64937;SHT30;51452;47.698;19.050;2023-07-16T07:46:26;27.94;52.10
64937;SHT30;51452;47.698;19.050;2023-07-16T07:48:52;27.98;52.02
64937;SHT30;51452;47.698;19.050;2023-07-16T07:51:17;28.09;52.79
64937;SHT30;51452;47.698;19.050;2023-07-16T07:53:42;28.06;53.07
64937;SHT30;51452;47.698;19.050;2023-07-16T07:56:08;28.17;52.64
64937;SHT30;51452;47.698;19.050;2023-07-16T07:58:33;28.15;52.67
64937;SHT30;51452;47.698;19.050;2023-07-16T08:01:05;28.12;52.23
64937;SHT30;51452;47.698;19.050;2023-07-16T08:03:31;28.26;53.68
64937;SHT30;51452;47.698;19.050;2023-07-16T08:05:56;28.35;53.01
64937;SHT30;51452;47.698;19.050;2023-07-16T08:08:22;28.43;54.99
64937;SHT30;51452;47.698;19.050;2023-07-16T08:10:47;28.45;53.61
64937;SHT30;51452;47.698;19.050;2023-07-16T08:13:12;28.46;51.94
64937;SHT30;51452;47.698;19.050;2023-07-16T08:15:38;28.57;53.24
64937;SHT30;51452;47.698;19.050;2023-07-16T08:18:03;28.60;54.13
64937;SHT30;51452;47.698;19.050;2023-07-16T08:20:29;28.67;52.77
64937;SHT30;51452;47.698;19.050;2023-07-16T08:22:54;28.63;53.77
64937;SHT30;51452;47.698;19.050;2023-07-16T08:25:19;28.71;53.16
64937;SHT30;51452;47.698;19.050;2023-07-16T08:27:45;28.80;53.68
64937;SHT30;51452;47.698;19.050;2023-07-16T08:30:11;28.86;53.53
64937;SHT30;51452;47.698;19.050;2023-07-16T08:32:36;28.81;52.72
64937;SHT30;51452;47.698;19.050;2023-07-16T08:35:01;28.83;52.50
64937;SHT30;51452;47.698;19.050;2023-07-16T08:37:27;28.93;52.64
64937;SHT30;51452;47.698;19.050;2023-07-16T08:39:53;28.97;51.06
64937;SHT30;51452;47.698;19.050;2023-07-16T08:42:21;29.07;52.50
64937;SHT30;51452;47.698;19.050;2023-07-16T08:44:48;29.15;52.99
64937;SHT30;51452;47.698;19.050;2023-07-16T08:47:15;29.18;53.41
64937;SHT30;51452;47.698;19.050;2023-07-16T08:49:41;29.25;51.51
64937;SHT30;51452;47.698;19.050;2023-07-16T08:52:09;29.31;51.61
64937;SHT30;51452;47.698;19.050;2023-07-16T08:54:34;29.38;50.75
64937;SHT30;51452;47.698;19.050;2023-07-16T08:57:00;29.48;50.84
64937;SHT30;51452;47.698;19.050;2023-07-16T08:59:26;29.49;52.82
64937;SHT30;51452;47.698;19.050;2023-07-16T09:01:52;29.61;51.77
64937;SHT30;51452;47.698;19.050;2023-07-16T09:04:18;29.51;50.26
64937;SHT30;51452;47.698;19.050;2023-07-16T09:06:44;29.58;50.32
64937;SHT30;51452;47.698;19.050;2023-07-16T09:09:29;29.54;49.74
64937;SHT30;51452;47.698;19.050;2023-07-16T09:11:55;29.66;50.69
64937;SHT30;51452;47.698;19.050;2023-07-16T09:14:21;29.80;50.65
64937;SHT30;51452;47.698;19.050;2023-07-16T09:16:50;29.80;50.91
64937;SHT30;51452;47.698;19.050;2023-07-16T09:19:16;29.89;50.53
64937;SHT30;51452;47.698;19.050;2023-07-16T09:21:49;29.89;50.03
64937;SHT30;51452;47.698;19.050;2023-07-16T09:24:15;30.00;49.43
64937;SHT30;51452;47.698;19.050;2023-07-16T09:26:50;30.00;49.17
64937;SHT30;51452;47.698;19.050;2023-07-16T09:29:17;30.14;49.33
64937;SHT30;51452;47.698;19.050;2023-07-16T09:32:12;30.09;50.16
64937;SHT30;51452;47.698;19.050;2023-07-16T09:34:37;30.28;48.98
64937;SHT30;51452;47.698;19.050;2023-07-16T09:37:04;30.35;50.50
64937;SHT30;51452;47.698;19.050;2023-07-16T09:39:31;30.23;48.23
64937;SHT30;51452;47.698;19.050;2023-07-16T09:41:57;30.35;49.80
64937;SHT30;51452;47.698;19.050;2023-07-16T09:44:23;30.28;48.89
64937;SHT30;51452;47.698;19.050;2023-07-16T09:46:48;30.43;50.02
64937;SHT30;51452;47.698;19.050;2023-07-16T09:49:15;30.40;48.18
64937;SHT30;51452;47.698;19.050;2023-07-16T09:51:42;30.38;48.68
64937;SHT30;51452;47.698;19.050;2023-07-16T09:54:08;30.54;48.61
64937;SHT30;51452;47.698;19.050;2023-07-16T09:56:40;30.49;47.65
64937;SHT30;51452;47.698;19.050;2023-07-16T09:59:13;30.60;48.35
64937;SHT30;51452;47.698;19.050;2023-07-16T10:01:40;30.69;47.54
64937;SHT30;51452;47.698;19.050;2023-07-16T10:04:16;30.72;47.89
64937;SHT30;51452;47.698;19.050;2023-07-16T10:06:55;30.82;47.15
64937;SHT30;51452;47.698;19.050;2023-07-16T10:09:41;30.92;48.03
64937;SHT30;51452;47.698;19.050;2023-07-16T10:14:41;31.12;47.29
64937;SHT30;51452;47.698;19.050;2023-07-16T10:17:07;31.22;47.62
64937;SHT30;51452;47.698;19.050;2023-07-16T10:19:55;31.23;48.41
64937;SHT30;51452;47.698;19.050;2023-07-16T10:22:34;31.33;48.64
64937;SHT30;51452;47.698;19.050;2023-07-16T10:25:02;31.46;47.91
64937;SHT30;51452;47.698;19.050;2023-07-16T10:27:32;31.47;47.93
64937;SHT30;51452;47.698;19.050;2023-07-16T10:29:59;31.44;46.56
64937;SHT30;51452;47.698;19.050;2023-07-16T10:32:27;31.53;48.22
64937;SHT30;51452;47.698;19.050;2023-07-16T10:34:53;31.47;47.67
64937;SHT30;51452;47.698;19.050;2023-07-16T10:37:19;31.60;46.18
64937;SHT30;51452;47.698;19.050;2023-07-16T10:39:48;31.67;47.67
64937;SHT30;51452;47.698;19.050;2023-07-16T10:42:16;31.72;47.92
64937;SHT30;51452;47.698;19.050;2023-07-16T10:44:42;31.50;46.95
64937;SHT30;51452;47.698;19.050;2023-07-16T10:47:08;31.53;47.43
64937;SHT30;51452;47.698;19.050;2023-07-16T10:49:33;31.69;46.23
64937;SHT30;51452;47.698;19.050;2023-07-16T10:52:00;31.80;46.43
64937;SHT30;51452;47.698;19.050;2023-07-16T10:54:26;31.72;45.51
64937;SHT30;51452;47.698;19.050;2023-07-16T10:56:51;31.80;45.12
64937;SHT30;51452;47.698;19.050;2023-07-16T10:59:17;31.84;46.26
64937;SHT30;51452;47.698;19.050;2023-07-16T11:01:43;31.78;47.38
64937;SHT30;51452;47.698;19.050;2023-07-16T11:04:09;31.73;47.46
64937;SHT30;51452;47.698;19.050;2023-07-16T11:06:34;31.84;47.94
64937;SHT30;51452;47.698;19.050;2023-07-16T11:09:10;31.90;46.26
64937;SHT30;51452;47.698;19.050;2023-07-16T11:11:36;31.90;46.67
64937;SHT30;51452;47.698;19.050;2023-07-16T11:14:05;32.07;47.03
64937;SHT30;51452;47.698;19.050;2023-07-16T11:16:37;32.15;46.26
64937;SHT30;51452;47.698;19.050;2023-07-16T11:19:06;32.25;46.04
64937;SHT30;51452;47.698;19.050;2023-07-16T11:21:36;32.36;46.42
64937;SHT30;51452;47.698;19.050;2023-07-16T11:24:12;32.24;45.81
64937;SHT30;51452;47.698;19.050;2023-07-16T11:26:40;32.22;46.70
64937;SHT30;51452;47.698;19.050;2023-07-16T11:29:14;32.22;46.17
64937;SHT30;51452;47.698;19.050;2023-07-16T11:31:40;32.29;45.42
64937;SHT30;51452;47.698;19.050;2023-07-16T11:34:13;32.39;44.59
64937;SHT30;51452;47.698;19.050;2023-07-16T11:36:38;32.41;44.78
64937;SHT30;51452;47.698;19.050;2023-07-16T11:39:04;32.39;46.42
64937;SHT30;51452;47.698;19.050;2023-07-16T11:41:30;32.38;46.35
64937;SHT30;51452;47.698;19.050;2023-07-16T11:44:00;32.42;44.12
64937;SHT30;51452;47.698;19.050;2023-07-16T11:46:31;32.38;45.95
64937;SHT30;51452;47.698;19.050;2023-07-16T11:48:57;32.27;44.39
64937;SHT30;51452;47.698;19.050;2023-07-16T11:51:22;32.32;45.37
64937;SHT30;51452;47.698;19.050;2023-07-16T11:53:47;32.29;44.79
64937;SHT30;51452;47.698;19.050;2023-07-16T11:56:13;32.38;45.20
64937;SHT30;51452;47.698;19.050;2023-07-16T11:58:38;32.52;44.70
64937;SHT30;51452;47.698;19.050;2023-07-16T12:01:03;32.59;43.14
64937;SHT30;51452;47.698;19.050;2023-07-16T12:03:29;32.62;44.42
64937;SHT30;51452;47.698;19.050;2023-07-16T12:05:54;32.58;43.86
64937;SHT30;51452;47.698;19.050;2023-07-16T12:08:20;32.39;44.18
64937;SHT30;51452;47.698;19.050;2023-07-16T12:10:45;32.41;44.57
64937;SHT30;51452;47.698;19.050;2023-07-16T12:13:10;32.32;47.92
64937;SHT30;51452;47.698;19.050;2023-07-16T12:15:36;32.13;46.30
64937;SHT30;51452;47.698;19.050;2023-07-16T12:18:01;32.08;47.88
64937;SHT30;51452;47.698;19.050;2023-07-16T12:20:26;32.04;48.61
64937;SHT30;51452;47.698;19.050;2023-07-16T12:22:52;31.94;49.63
64937;SHT30;51452;47.698;19.050;2023-07-16T12:25:18;31.94;50.82
64937;SHT30;51452;47.698;19.050;2023-07-16T12:27:44;31.97;47.71
64937;SHT30;51452;47.698;19.050;2023-07-16T12:30:09;32.14;47.67
64937;SHT30;51452;47.698;19.050;2023-07-16T12:32:36;32.35;46.66
64937;SHT30;51452;47.698;19.050;2023-07-16T12:35:01;32.39;46.19
64937;SHT30;51452;47.698;19.050;2023-07-16T12:37:28;32.51;44.26
64937;SHT30;51452;47.698;19.050;2023-07-16T12:39:54;32.55;43.71
64937;SHT30;51452;47.698;19.050;2023-07-16T12:42:19;32.78;42.54
64937;SHT30;51452;47.698;19.050;2023-07-16T12:44:45;32.89;41.93
64937;SHT30;51452;47.698;19.050;2023-07-16T12:47:11;33.10;41.27
64937;SHT30;51452;47.698;19.050;2023-07-16T12:49:36;33.06;40.89
64937;SHT30;51452;47.698;19.050;2023-07-16T12:52:02;33.02;40.02
64937;SHT30;51452;47.698;19.050;2023-07-16T12:54:27;33.02;40.75
64937;SHT30;51452;47.698;19.050;2023-07-16T12:56:53;33.13;41.08
64937;SHT30;51452;47.698;19.050;2023-07-16T12:59:18;33.31;41.41
64937;SHT30;51452;47.698;19.050;2023-07-16T13:01:44;33.39;42.03
64937;SHT30;51452;47.698;19.050;2023-07-16T13:04:09;33.41;41.45
64937;SHT30;51452;47.698;19.050;2023-07-16T13:06:35;33.54;40.93
64937;SHT30;51452;47.698;19.050;2023-07-16T13:09:00;33.54;40.41
64937;SHT30;51452;47.698;19.050;2023-07-16T13:11:26;33.50;40.86
64937;SHT30;51452;47.698;19.050;2023-07-16T13:13:52;33.77;41.88
64937;SHT30;51452;47.698;19.050;2023-07-16T13:16:18;33.78;41.71
64937;SHT30;51452;47.698;19.050;2023-07-16T13:18:44;33.97;39.83
64937;SHT30;51452;47.698;19.050;2023-07-16T13:21:09;33.90;39.69
64937;SHT30;51452;47.698;19.050;2023-07-16T13:23:35;34.01;39.69
64937;SHT30;51452;47.698;19.050;2023-07-16T13:26:01;33.87;39.76
64937;SHT30;51452;47.698;19.050;2023-07-16T13:28:27;33.72;40.82
64937;SHT30;51452;47.698;19.050;2023-07-16T13:30:53;33.78;40.95
64937;SHT30;51452;47.698;19.050;2023-07-16T13:33:19;33.77;42.22
64937;SHT30;51452;47.698;19.050;2023-07-16T13:35:45;33.71;41.85
64937;SHT30;51452;47.698;19.050;2023-07-16T13:38:11;33.81;40.75
64937;SHT30;51452;47.698;19.050;2023-07-16T13:40:37;33.82;41.66
64937;SHT30;51452;47.698;19.050;2023-07-16T13:43:03;33.84;40.82
64937;SHT30;51452;47.698;19.050;2023-07-16T13:45:29;33.90;39.10
64937;SHT30;51452;47.698;19.050;2023-07-16T13:47:54;33.90;40.60
64937;SHT30;51452;47.698;19.050;2023-07-16T13:50:21;33.95;40.21
64937;SHT30;51452;47.698;19.050;2023-07-16T13:52:46;34.01;39.10
64937;SHT30;51452;47.698;19.050;2023-07-16T13:55:12;33.91;40.08
64937;SHT30;51452;47.698;19.050;2023-07-16T13:57:38;34.02;39.71
64937;SHT30;51452;47.698;19.050;2023-07-16T14:00:04;34.12;38.08
64937;SHT30;51452;47.698;19.050;2023-07-16T14:02:30;34.08;40.14
64937;SHT30;51452;47.698;19.050;2023-07-16T14:04:56;34.02;39.06
64937;SHT30;51452;47.698;19.050;2023-07-16T14:07:22;34.08;39.26
64937;SHT30;51452;47.698;19.050;2023-07-16T14:09:48;33.97;41.84
64937;SHT30;51452;47.698;19.050;2023-07-16T14:12:14;33.90;39.14
64937;SHT30;51452;47.698;19.050;2023-07-16T14:14:40;33.90;40.59
64937;SHT30;51452;47.698;19.050;2023-07-16T14:17:05;33.87;40.88
64937;SHT30;51452;47.698;19.050;2023-07-16T14:19:31;33.90;39.92
64937;SHT30;51452;47.698;19.050;2023-07-16T14:21:57;33.97;39.21
64937;SHT30;51452;47.698;19.050;2023-07-16T14:24:22;33.91;39.82
64937;SHT30;51452;47.698;19.050;2023-07-16T14:26:48;33.91;41.05
64937;SHT30;51452;47.698;19.050;2023-07-16T14:29:14;33.90;40.00
64937;SHT30;51452;47.698;19.050;2023-07-16T14:31:40;33.85;41.05
64937;SHT30;51452;47.698;19.050;2023-07-16T14:34:06;33.95;40.85
64937;SHT30;51452;47.698;19.050;2023-07-16T14:36:32;33.94;41.29
64937;SHT30;51452;47.698;19.050;2023-07-16T14:38:58;33.94;40.24
64937;SHT30;51452;47.698;19.050;2023-07-16T14:41:24;33.75;40.86
64937;SHT30;51452;47.698;19.050;2023-07-16T14:43:50;33.84;40.61
64937;SHT30;51452;47.698;19.050;2023-07-16T14:46:16;33.87;42.38
64937;SHT30;51452;47.698;19.050;2023-07-16T14:48:45;33.92;41.55
64937;SHT30;51452;47.698;19.050;2023-07-16T14:51:13;33.75;42.46
64937;SHT30;51452;47.698;19.050;2023-07-16T14:53:39;33.74;40.99
64937;SHT30;51452;47.698;19.050;2023-07-16T14:56:05;33.60;42.28
64937;SHT30;51452;47.698;19.050;2023-07-16T14:58:32;33.72;41.36
64937;SHT30;51452;47.698;19.050;2023-07-16T15:01:01;33.71;43.18
64937;SHT30;51452;47.698;19.050;2023-07-16T15:03:35;33.68;41.83
64937;SHT30;51452;47.698;19.050;2023-07-16T15:06:03;33.74;41.93
64937;SHT30;51452;47.698;19.050;2023-07-16T15:08:29;33.67;42.53
64937;SHT30;51452;47.698;19.050;2023-07-16T15:10:56;33.50;42.92
64937;SHT30;51452;47.698;19.050;2023-07-16T15:13:22;33.61;43.48
64937;SHT30;51452;47.698;19.050;2023-07-16T15:15:51;33.58;45.02
64937;SHT30;51452;47.698;19.050;2023-07-16T15:18:18;33.61;43.44
64937;SHT30;51452;47.698;19.050;2023-07-16T15:20:45;33.65;41.88
64937;SHT30;51452;47.698;19.050;2023-07-16T15:23:11;33.64;42.34